Terminal Aerodrome Forecast
Issued by NWS Denver/Boulder, CO

Home | Current Version | Previous Version | Text Only | Print | Product List | Glossary On
Versions: 1 2 3 4 5 6 7 8 9 10 11 12 13 14 15 16 17 18 19 20 21 22 23 24 25 26 27 28 29 30 31 32 33 34 35 36 37 38 39 40 41 42
000
FTUS45 KBOU 260150 AAB
TAFDEN
TAF AMD
KDEN 260150Z 2602/2706 17018G28KT P6SM FEW090 SCT150
     FM260300 17015KT P6SM FEW090 SCT150
     FM260500 21012KT P6SM FEW100 SCT150 SCT200
     FM261500 34006KT P6SM FEW150 SCT200
     FM261800 02007KT P6SM FEW090 SCT150
     FM270100 12009KT P6SM SCT090 BKN140=

USA.gov is the U.S. government's official web portal to all federal, state and local government web resources and services.